sensor_id;sensor_type;location;lat;lon;timestamp;P1;durP1;ratioP1;P2;durP2;ratioP2
62580;SDS011;48640;48.770;9.148;2022-09-21T00:01:10;6.30;;;2.38;;
62580;SDS011;48640;48.770;9.148;2022-09-21T00:03:38;4.53;;;2.38;;
62580;SDS011;48640;48.770;9.148;2022-09-21T00:06:07;4.90;;;2.65;;
62580;SDS011;48640;48.770;9.148;2022-09-21T00:08:35;4.68;;;2.53;;
62580;SDS011;48640;48.770;9.148;2022-09-21T00:11:02;5.55;;;2.85;;
62580;SDS011;48640;48.770;9.148;2022-09-21T00:13:30;4.15;;;2.55;;
62580;SDS011;48640;48.770;9.148;2022-09-21T00:15:59;4.47;;;2.88;;
62580;SDS011;48640;48.770;9.148;2022-09-21T00:18:29;8.93;;;3.03;;
62580;SDS011;48640;48.770;9.148;2022-09-21T00:20:56;6.60;;;3.22;;
62580;SDS011;48640;48.770;9.148;2022-09-21T00:23:23;9.90;;;3.60;;
62580;SDS011;48640;48.770;9.148;2022-09-21T00:25:50;8.88;;;3.28;;
62580;SDS011;48640;48.770;9.148;2022-09-21T00:28:17;5.45;;;3.20;;
62580;SDS011;48640;48.770;9.148;2022-09-21T00:30:44;7.60;;;4.15;;
62580;SDS011;48640;48.770;9.148;2022-09-21T00:33:17;8.82;;;3.50;;
62580;SDS011;48640;48.770;9.148;2022-09-21T00:35:43;7.40;;;3.83;;
62580;SDS011;48640;48.770;9.148;2022-09-21T00:38:10;6.90;;;4.13;;
62580;SDS011;48640;48.770;9.148;2022-09-21T00:40:37;6.13;;;2.88;;
62580;SDS011;48640;48.770;9.148;2022-09-21T00:43:13;7.47;;;3.42;;
62580;SDS011;48640;48.770;9.148;2022-09-21T00:45:41;10.48;;;2.83;;
62580;SDS011;48640;48.770;9.148;2022-09-21T00:48:09;6.93;;;3.65;;
62580;SDS011;48640;48.770;9.148;2022-09-21T00:50:38;7.32;;;3.65;;
62580;SDS011;48640;48.770;9.148;2022-09-21T00:53:11;6.45;;;3.08;;
62580;SDS011;48640;48.770;9.148;2022-09-21T00:55:39;6.35;;;3.78;;
62580;SDS011;48640;48.770;9.148;2022-09-21T00:58:09;9.00;;;3.70;;
62580;SDS011;48640;48.770;9.148;2022-09-21T01:00:39;5.35;;;2.92;;
62580;SDS011;48640;48.770;9.148;2022-09-21T01:03:06;7.82;;;3.95;;
62580;SDS011;48640;48.770;9.148;2022-09-21T01:05:35;9.13;;;4.03;;
62580;SDS011;48640;48.770;9.148;2022-09-21T01:08:03;5.30;;;3.17;;
62580;SDS011;48640;48.770;9.148;2022-09-21T01:10:36;9.45;;;3.67;;
62580;SDS011;48640;48.770;9.148;2022-09-21T01:13:12;7.75;;;3.33;;
62580;SDS011;48640;48.770;9.148;2022-09-21T01:15:49;6.43;;;3.20;;
62580;SDS011;48640;48.770;9.148;2022-09-21T01:18:29;6.88;;;3.35;;
62580;SDS011;48640;48.770;9.148;2022-09-21T01:21:07;6.45;;;3.17;;
62580;SDS011;48640;48.770;9.148;2022-09-21T01:27:00;8.05;;;3.20;;
62580;SDS011;48640;48.770;9.148;2022-09-21T01:29:52;6.95;;;3.38;;
62580;SDS011;48640;48.770;9.148;2022-09-21T01:32:25;8.43;;;3.53;;
62580;SDS011;48640;48.770;9.148;2022-09-21T01:34:54;8.10;;;3.58;;
62580;SDS011;48640;48.770;9.148;2022-09-21T01:37:25;7.38;;;3.75;;
62580;SDS011;48640;48.770;9.148;2022-09-21T01:39:58;5.80;;;3.42;;
62580;SDS011;48640;48.770;9.148;2022-09-21T01:42:28;8.65;;;3.58;;
62580;SDS011;48640;48.770;9.148;2022-09-21T01:44:59;5.63;;;3.33;;
62580;SDS011;48640;48.770;9.148;2022-09-21T01:47:31;6.35;;;3.58;;
62580;SDS011;48640;48.770;9.148;2022-09-21T01:50:01;6.95;;;3.22;;
62580;SDS011;48640;48.770;9.148;2022-09-21T01:52:30;7.30;;;4.00;;
62580;SDS011;48640;48.770;9.148;2022-09-21T01:57:30;5.18;;;2.95;;
62580;SDS011;48640;48.770;9.148;2022-09-21T02:00:07;6.00;;;3.45;;
62580;SDS011;48640;48.770;9.148;2022-09-21T02:02:35;4.85;;;3.33;;
62580;SDS011;48640;48.770;9.148;2022-09-21T02:05:06;6.05;;;3.80;;
62580;SDS011;48640;48.770;9.148;2022-09-21T02:07:34;6.40;;;3.50;;
62580;SDS011;48640;48.770;9.148;2022-09-21T02:10:03;6.72;;;3.90;;
62580;SDS011;48640;48.770;9.148;2022-09-21T02:12:32;6.03;;;4.30;;
62580;SDS011;48640;48.770;9.148;2022-09-21T02:14:59;8.88;;;3.83;;
62580;SDS011;48640;48.770;9.148;2022-09-21T02:17:33;6.95;;;3.80;;
62580;SDS011;48640;48.770;9.148;2022-09-21T02:20:06;7.90;;;3.67;;
62580;SDS011;48640;48.770;9.148;2022-09-21T02:22:44;8.48;;;4.18;;
62580;SDS011;48640;48.770;9.148;2022-09-21T02:25:24;7.65;;;3.60;;
62580;SDS011;48640;48.770;9.148;2022-09-21T02:27:59;5.50;;;3.28;;
62580;SDS011;48640;48.770;9.148;2022-09-21T02:30:32;5.85;;;3.50;;
62580;SDS011;48640;48.770;9.148;2022-09-21T02:33:03;6.60;;;3.53;;
62580;SDS011;48640;48.770;9.148;2022-09-21T02:35:37;8.10;;;4.53;;
62580;SDS011;48640;48.770;9.148;2022-09-21T02:38:10;7.70;;;3.47;;
62580;SDS011;48640;48.770;9.148;2022-09-21T02:40:46;8.75;;;3.88;;
62580;SDS011;48640;48.770;9.148;2022-09-21T02:43:18;9.35;;;4.32;;
62580;SDS011;48640;48.770;9.148;2022-09-21T02:45:51;7.38;;;3.38;;
62580;SDS011;48640;48.770;9.148;2022-09-21T02:48:24;6.88;;;3.78;;
62580;SDS011;48640;48.770;9.148;2022-09-21T02:50:55;7.70;;;3.88;;
62580;SDS011;48640;48.770;9.148;2022-09-21T02:55:54;7.20;;;4.00;;
62580;SDS011;48640;48.770;9.148;2022-09-21T02:58:26;7.30;;;3.75;;
62580;SDS011;48640;48.770;9.148;2022-09-21T03:00:55;4.82;;;3.28;;
62580;SDS011;48640;48.770;9.148;2022-09-21T03:03:25;6.18;;;4.60;;
62580;SDS011;48640;48.770;9.148;2022-09-21T03:05:52;14.77;;;4.05;;
62580;SDS011;48640;48.770;9.148;2022-09-21T03:08:20;6.97;;;4.15;;
62580;SDS011;48640;48.770;9.148;2022-09-21T03:10:47;9.43;;;4.03;;
62580;SDS011;48640;48.770;9.148;2022-09-21T03:13:14;7.93;;;4.05;;
62580;SDS011;48640;48.770;9.148;2022-09-21T03:15:42;7.35;;;4.00;;
62580;SDS011;48640;48.770;9.148;2022-09-21T03:18:10;8.63;;;3.45;;
62580;SDS011;48640;48.770;9.148;2022-09-21T03:20:39;8.57;;;4.55;;
62580;SDS011;48640;48.770;9.148;2022-09-21T03:23:10;7.72;;;3.78;;
62580;SDS011;48640;48.770;9.148;2022-09-21T03:25:36;6.95;;;4.05;;
62580;SDS011;48640;48.770;9.148;2022-09-21T03:28:03;7.60;;;3.75;;
62580;SDS011;48640;48.770;9.148;2022-09-21T03:30:30;8.90;;;3.80;;
62580;SDS011;48640;48.770;9.148;2022-09-21T03:32:57;8.80;;;4.35;;
62580;SDS011;48640;48.770;9.148;2022-09-21T03:35:24;6.72;;;4.20;;
62580;SDS011;48640;48.770;9.148;2022-09-21T03:37:52;5.82;;;3.78;;
62580;SDS011;48640;48.770;9.148;2022-09-21T03:40:20;7.93;;;4.35;;
62580;SDS011;48640;48.770;9.148;2022-09-21T03:42:47;7.07;;;4.28;;
62580;SDS011;48640;48.770;9.148;2022-09-21T03:45:14;8.40;;;4.80;;
62580;SDS011;48640;48.770;9.148;2022-09-21T03:47:40;7.72;;;3.95;;
62580;SDS011;48640;48.770;9.148;2022-09-21T03:50:09;7.80;;;3.85;;
62580;SDS011;48640;48.770;9.148;2022-09-21T03:52:36;9.05;;;5.10;;
62580;SDS011;48640;48.770;9.148;2022-09-21T03:55:05;6.38;;;4.30;;
62580;SDS011;48640;48.770;9.148;2022-09-21T03:57:34;11.70;;;5.97;;
62580;SDS011;48640;48.770;9.148;2022-09-21T04:00:03;9.43;;;5.60;;
62580;SDS011;48640;48.770;9.148;2022-09-21T04:02:32;10.05;;;5.03;;
62580;SDS011;48640;48.770;9.148;2022-09-21T04:04:59;11.05;;;4.88;;
62580;SDS011;48640;48.770;9.148;2022-09-21T04:07:29;8.45;;;4.32;;
62580;SDS011;48640;48.770;9.148;2022-09-21T04:09:56;9.63;;;5.03;;
62580;SDS011;48640;48.770;9.148;2022-09-21T04:12:24;9.02;;;4.63;;
62580;SDS011;48640;48.770;9.148;2022-09-21T04:14:51;9.43;;;4.97;;
62580;SDS011;48640;48.770;9.148;2022-09-21T04:17:18;7.80;;;4.88;;
62580;SDS011;48640;48.770;9.148;2022-09-21T04:19:45;10.57;;;5.10;;
62580;SDS011;48640;48.770;9.148;2022-09-21T04:22:11;9.23;;;5.88;;
62580;SDS011;48640;48.770;9.148;2022-09-21T04:24:38;8.30;;;5.38;;
62580;SDS011;48640;48.770;9.148;2022-09-21T04:27:05;11.73;;;5.75;;
62580;SDS011;48640;48.770;9.148;2022-09-21T04:29:34;9.93;;;5.90;;
62580;SDS011;48640;48.770;9.148;2022-09-21T04:32:01;10.27;;;5.90;;
62580;SDS011;48640;48.770;9.148;2022-09-21T04:34:28;12.02;;;6.07;;
62580;SDS011;48640;48.770;9.148;2022-09-21T04:36:56;9.57;;;5.50;;
62580;SDS011;48640;48.770;9.148;2022-09-21T04:39:23;7.85;;;5.00;;
62580;SDS011;48640;48.770;9.148;2022-09-21T04:41:50;8.98;;;5.40;;
62580;SDS011;48640;48.770;9.148;2022-09-21T04:44:17;7.55;;;5.30;;
62580;SDS011;48640;48.770;9.148;2022-09-21T04:46:45;8.07;;;5.20;;
62580;SDS011;48640;48.770;9.148;2022-09-21T04:49:12;6.95;;;4.78;;
62580;SDS011;48640;48.770;9.148;2022-09-21T04:51:38;8.18;;;4.72;;
62580;SDS011;48640;48.770;9.148;2022-09-21T04:54:05;11.38;;;4.40;;
62580;SDS011;48640;48.770;9.148;2022-09-21T04:56:32;8.15;;;4.95;;
62580;SDS011;48640;48.770;9.148;2022-09-21T04:58:59;8.25;;;5.50;;
62580;SDS011;48640;48.770;9.148;2022-09-21T05:01:25;10.52;;;5.50;;
62580;SDS011;48640;48.770;9.148;2022-09-21T05:03:54;10.20;;;5.45;;
62580;SDS011;48640;48.770;9.148;2022-09-21T05:06:22;8.07;;;4.47;;
62580;SDS011;48640;48.770;9.148;2022-09-21T05:08:49;6.95;;;4.85;;
62580;SDS011;48640;48.770;9.148;2022-09-21T05:11:33;10.48;;;5.30;;
62580;SDS011;48640;48.770;9.148;2022-09-21T05:14:00;8.90;;;5.03;;
62580;SDS011;48640;48.770;9.148;2022-09-21T05:16:27;9.65;;;5.85;;
62580;SDS011;48640;48.770;9.148;2022-09-21T05:18:55;10.85;;;5.70;;
62580;SDS011;48640;48.770;9.148;2022-09-21T05:21:22;12.43;;;7.85;;
62580;SDS011;48640;48.770;9.148;2022-09-21T05:23:48;9.38;;;6.63;;
62580;SDS011;48640;48.770;9.148;2022-09-21T05:26:15;14.63;;;7.40;;
62580;SDS011;48640;48.770;9.148;2022-09-21T05:28:42;9.95;;;6.70;;
62580;SDS011;48640;48.770;9.148;2022-09-21T05:31:11;11.45;;;7.40;;
62580;SDS011;48640;48.770;9.148;2022-09-21T05:33:53;10.85;;;6.55;;
62580;SDS011;48640;48.770;9.148;2022-09-21T05:36:31;14.18;;;6.78;;
62580;SDS011;48640;48.770;9.148;2022-09-21T05:39:06;10.27;;;5.55;;
62580;SDS011;48640;48.770;9.148;2022-09-21T05:41:33;9.48;;;7.00;;
62580;SDS011;48640;48.770;9.148;2022-09-21T05:44:01;8.45;;;6.50;;
62580;SDS011;48640;48.770;9.148;2022-09-21T05:46:32;9.20;;;6.38;;
62580;SDS011;48640;48.770;9.148;2022-09-21T05:49:04;11.00;;;6.47;;
62580;SDS011;48640;48.770;9.148;2022-09-21T05:51:41;14.93;;;6.22;;
62580;SDS011;48640;48.770;9.148;2022-09-21T05:54:16;9.15;;;5.90;;
62580;SDS011;48640;48.770;9.148;2022-09-21T05:56:48;8.25;;;5.38;;
62580;SDS011;48640;48.770;9.148;2022-09-21T05:59:27;12.60;;;6.40;;
62580;SDS011;48640;48.770;9.148;2022-09-21T06:02:05;8.88;;;5.35;;
62580;SDS011;48640;48.770;9.148;2022-09-21T06:04:40;16.48;;;6.25;;
62580;SDS011;48640;48.770;9.148;2022-09-21T06:07:07;8.90;;;6.25;;
62580;SDS011;48640;48.770;9.148;2022-09-21T06:09:34;10.32;;;5.68;;
62580;SDS011;48640;48.770;9.148;2022-09-21T06:12:01;9.50;;;6.20;;
62580;SDS011;48640;48.770;9.148;2022-09-21T06:14:28;11.00;;;6.10;;
62580;SDS011;48640;48.770;9.148;2022-09-21T06:16:56;13.15;;;6.47;;
62580;SDS011;48640;48.770;9.148;2022-09-21T06:19:22;12.32;;;6.45;;
62580;SDS011;48640;48.770;9.148;2022-09-21T06:21:51;9.70;;;7.03;;
62580;SDS011;48640;48.770;9.148;2022-09-21T06:24:17;12.82;;;6.45;;
62580;SDS011;48640;48.770;9.148;2022-09-21T06:26:44;9.48;;;6.10;;
62580;SDS011;48640;48.770;9.148;2022-09-21T06:29:11;11.40;;;7.00;;
62580;SDS011;48640;48.770;9.148;2022-09-21T06:31:37;13.35;;;5.90;;
62580;SDS011;48640;48.770;9.148;2022-09-21T06:34:04;9.02;;;6.50;;
62580;SDS011;48640;48.770;9.148;2022-09-21T06:36:31;11.93;;;6.57;;
62580;SDS011;48640;48.770;9.148;2022-09-21T06:38:59;15.30;;;6.82;;
62580;SDS011;48640;48.770;9.148;2022-09-21T06:41:26;12.07;;;5.80;;
62580;SDS011;48640;48.770;9.148;2022-09-21T06:43:52;9.98;;;5.88;;
62580;SDS011;48640;48.770;9.148;2022-09-21T06:46:20;11.95;;;6.22;;
62580;SDS011;48640;48.770;9.148;2022-09-21T06:48:47;9.45;;;6.22;;
62580;SDS011;48640;48.770;9.148;2022-09-21T06:51:14;12.93;;;6.60;;
62580;SDS011;48640;48.770;9.148;2022-09-21T06:53:41;13.15;;;6.95;;
62580;SDS011;48640;48.770;9.148;2022-09-21T06:56:09;12.10;;;6.80;;
62580;SDS011;48640;48.770;9.148;2022-09-21T06:58:36;11.38;;;6.60;;
62580;SDS011;48640;48.770;9.148;2022-09-21T07:01:03;12.25;;;6.82;;
62580;SDS011;48640;48.770;9.148;2022-09-21T07:03:32;9.05;;;6.72;;
62580;SDS011;48640;48.770;9.148;2022-09-21T07:05:59;10.50;;;6.13;;
62580;SDS011;48640;48.770;9.148;2022-09-21T07:08:26;10.65;;;6.53;;
62580;SDS011;48640;48.770;9.148;2022-09-21T07:10:52;13.18;;;7.78;;
62580;SDS011;48640;48.770;9.148;2022-09-21T07:13:23;10.82;;;7.18;;
62580;SDS011;48640;48.770;9.148;2022-09-21T07:15:50;9.98;;;6.45;;
62580;SDS011;48640;48.770;9.148;2022-09-21T07:18:17;14.68;;;7.03;;
62580;SDS011;48640;48.770;9.148;2022-09-21T07:20:44;12.15;;;6.72;;
62580;SDS011;48640;48.770;9.148;2022-09-21T07:23:13;12.07;;;7.03;;
62580;SDS011;48640;48.770;9.148;2022-09-21T07:25:41;11.55;;;7.40;;
62580;SDS011;48640;48.770;9.148;2022-09-21T07:28:08;11.82;;;7.35;;
62580;SDS011;48640;48.770;9.148;2022-09-21T07:30:37;16.48;;;9.05;;
62580;SDS011;48640;48.770;9.148;2022-09-21T07:33:05;10.35;;;7.10;;
62580;SDS011;48640;48.770;9.148;2022-09-21T07:35:32;13.35;;;7.47;;
62580;SDS011;48640;48.770;9.148;2022-09-21T07:37:59;10.20;;;6.90;;
62580;SDS011;48640;48.770;9.148;2022-09-21T07:40:27;9.20;;;6.20;;
62580;SDS011;48640;48.770;9.148;2022-09-21T07:42:56;14.25;;;8.15;;
62580;SDS011;48640;48.770;9.148;2022-09-21T07:45:23;14.07;;;7.78;;
62580;SDS011;48640;48.770;9.148;2022-09-21T07:47:51;11.00;;;6.72;;
62580;SDS011;48640;48.770;9.148;2022-09-21T07:50:18;11.88;;;6.82;;
62580;SDS011;48640;48.770;9.148;2022-09-21T07:52:45;14.30;;;7.28;;
62580;SDS011;48640;48.770;9.148;2022-09-21T07:55:12;9.90;;;6.57;;
62580;SDS011;48640;48.770;9.148;2022-09-21T07:57:39;14.07;;;7.80;;
62580;SDS011;48640;48.770;9.148;2022-09-21T08:00:23;11.20;;;6.68;;
62580;SDS011;48640;48.770;9.148;2022-09-21T08:02:54;14.65;;;6.05;;
62580;SDS011;48640;48.770;9.148;2022-09-21T08:05:21;8.05;;;5.10;;
62580;SDS011;48640;48.770;9.148;2022-09-21T08:07:48;12.00;;;5.88;;
62580;SDS011;48640;48.770;9.148;2022-09-21T08:10:17;12.13;;;6.00;;
62580;SDS011;48640;48.770;9.148;2022-09-21T08:12:43;10.55;;;5.45;;
62580;SDS011;48640;48.770;9.148;2022-09-21T08:15:10;17.23;;;5.50;;
62580;SDS011;48640;48.770;9.148;2022-09-21T08:17:38;8.20;;;5.55;;
62580;SDS011;48640;48.770;9.148;2022-09-21T08:20:07;15.25;;;5.50;;
62580;SDS011;48640;48.770;9.148;2022-09-21T08:22:34;13.15;;;6.00;;
62580;SDS011;48640;48.770;9.148;2022-09-21T08:25:01;9.50;;;5.32;;
62580;SDS011;48640;48.770;9.148;2022-09-21T08:27:28;8.65;;;5.00;;
62580;SDS011;48640;48.770;9.148;2022-09-21T08:29:55;10.07;;;5.47;;
62580;SDS011;48640;48.770;9.148;2022-09-21T08:32:22;11.23;;;5.63;;
62580;SDS011;48640;48.770;9.148;2022-09-21T08:34:49;8.35;;;5.25;;
62580;SDS011;48640;48.770;9.148;2022-09-21T08:37:17;8.48;;;4.75;;
62580;SDS011;48640;48.770;9.148;2022-09-21T08:39:46;7.15;;;4.47;;
62580;SDS011;48640;48.770;9.148;2022-09-21T08:42:17;5.90;;;4.57;;
62580;SDS011;48640;48.770;9.148;2022-09-21T08:44:59;7.47;;;3.83;;
62580;SDS011;48640;48.770;9.148;2022-09-21T08:47:32;9.30;;;4.50;;
62580;SDS011;48640;48.770;9.148;2022-09-21T08:50:04;9.40;;;4.05;;
62580;SDS011;48640;48.770;9.148;2022-09-21T08:52:45;7.18;;;4.53;;
62580;SDS011;48640;48.770;9.148;2022-09-21T08:55:15;6.20;;;3.75;;
62580;SDS011;48640;48.770;9.148;2022-09-21T08:57:44;5.90;;;3.15;;
62580;SDS011;48640;48.770;9.148;2022-09-21T09:00:12;5.65;;;2.97;;
62580;SDS011;48640;48.770;9.148;2022-09-21T09:02:45;6.28;;;2.75;;
62580;SDS011;48640;48.770;9.148;2022-09-21T09:05:31;5.97;;;3.47;;
62580;SDS011;48640;48.770;9.148;2022-09-21T09:08:16;8.75;;;3.30;;
62580;SDS011;48640;48.770;9.148;2022-09-21T09:10:55;6.03;;;3.33;;
62580;SDS011;48640;48.770;9.148;2022-09-21T09:13:38;5.88;;;2.78;;
62580;SDS011;48640;48.770;9.148;2022-09-21T09:16:27;5.05;;;3.25;;
62580;SDS011;48640;48.770;9.148;2022-09-21T09:19:00;5.07;;;2.80;;
62580;SDS011;48640;48.770;9.148;2022-09-21T09:21:34;5.18;;;3.05;;
62580;SDS011;48640;48.770;9.148;2022-09-21T09:24:08;7.93;;;2.65;;
62580;SDS011;48640;48.770;9.148;2022-09-21T09:26:38;8.20;;;2.20;;
62580;SDS011;48640;48.770;9.148;2022-09-21T09:29:12;7.25;;;2.40;;
62580;SDS011;48640;48.770;9.148;2022-09-21T09:31:43;4.65;;;2.25;;
62580;SDS011;48640;48.770;9.148;2022-09-21T09:34:11;4.43;;;2.10;;
62580;SDS011;48640;48.770;9.148;2022-09-21T09:36:42;3.65;;;1.88;;
62580;SDS011;48640;48.770;9.148;2022-09-21T09:39:14;6.20;;;2.00;;
62580;SDS011;48640;48.770;9.148;2022-09-21T09:44:19;4.32;;;1.92;;
62580;SDS011;48640;48.770;9.148;2022-09-21T09:47:01;4.57;;;1.55;;
62580;SDS011;48640;48.770;9.148;2022-09-21T09:49:36;3.42;;;2.00;;
62580;SDS011;48640;48.770;9.148;2022-09-21T09:52:15;4.72;;;1.60;;
62580;SDS011;48640;48.770;9.148;2022-09-21T09:54:43;4.70;;;1.52;;
62580;SDS011;48640;48.770;9.148;2022-09-21T09:57:10;5.10;;;1.87;;
62580;SDS011;48640;48.770;9.148;2022-09-21T09:59:40;4.50;;;1.55;;
62580;SDS011;48640;48.770;9.148;2022-09-21T10:02:17;3.67;;;1.98;;
62580;SDS011;48640;48.770;9.148;2022-09-21T10:04:53;4.47;;;2.03;;
62580;SDS011;48640;48.770;9.148;2022-09-21T10:07:32;4.32;;;2.85;;
62580;SDS011;48640;48.770;9.148;2022-09-21T10:10:01;5.60;;;1.95;;
62580;SDS011;48640;48.770;9.148;2022-09-21T10:12:28;5.55;;;1.73;;
62580;SDS011;48640;48.770;9.148;2022-09-21T10:14:56;4.18;;;1.50;;
62580;SDS011;48640;48.770;9.148;2022-09-21T10:17:25;2.60;;;1.25;;
62580;SDS011;48640;48.770;9.148;2022-09-21T10:19:57;2.63;;;1.15;;
62580;SDS011;48640;48.770;9.148;2022-09-21T10:22:25;2.40;;;1.30;;
62580;SDS011;48640;48.770;9.148;2022-09-21T10:24:53;3.28;;;1.45;;
62580;SDS011;48640;48.770;9.148;2022-09-21T10:27:24;2.83;;;1.05;;
62580;SDS011;48640;48.770;9.148;2022-09-21T10:29:52;2.95;;;1.30;;
62580;SDS011;48640;48.770;9.148;2022-09-21T10:32:20;4.13;;;1.30;;
62580;SDS011;48640;48.770;9.148;2022-09-21T10:35:11;3.72;;;1.65;;
62580;SDS011;48640;48.770;9.148;2022-09-21T10:37:42;5.63;;;1.30;;
62580;SDS011;48640;48.770;9.148;2022-09-21T10:40:25;3.17;;;1.45;;
62580;SDS011;48640;48.770;9.148;2022-09-21T10:42:56;3.38;;;1.50;;
62580;SDS011;48640;48.770;9.148;2022-09-21T10:45:24;3.03;;;1.13;;
62580;SDS011;48640;48.770;9.148;2022-09-21T10:47:54;6.53;;;1.38;;
62580;SDS011;48640;48.770;9.148;2022-09-21T10:50:23;4.20;;;1.20;;
62580;SDS011;48640;48.770;9.148;2022-09-21T10:52:54;2.45;;;1.42;;
62580;SDS011;48640;48.770;9.148;2022-09-21T10:55:24;3.10;;;1.35;;
62580;SDS011;48640;48.770;9.148;2022-09-21T10:57:53;2.70;;;1.05;;
62580;SDS011;48640;48.770;9.148;2022-09-21T11:00:29;3.03;;;1.00;;
62580;SDS011;48640;48.770;9.148;2022-09-21T11:05:53;1.60;;;0.88;;
62580;SDS011;48640;48.770;9.148;2022-09-21T11:08:23;2.38;;;1.00;;
62580;SDS011;48640;48.770;9.148;2022-09-21T11:11:02;4.25;;;1.17;;
62580;SDS011;48640;48.770;9.148;2022-09-21T11:13:42;1.95;;;1.00;;
62580;SDS011;48640;48.770;9.148;2022-09-21T11:16:15;3.47;;;1.17;;
62580;SDS011;48640;48.770;9.148;2022-09-21T11:18:49;2.38;;;1.00;;
62580;SDS011;48640;48.770;9.148;2022-09-21T11:21:24;2.80;;;0.95;;
62580;SDS011;48640;48.770;9.148;2022-09-21T11:24:02;2.17;;;0.90;;
62580;SDS011;48640;48.770;9.148;2022-09-21T11:26:39;1.42;;;0.80;;
62580;SDS011;48640;48.770;9.148;2022-09-21T11:29:13;2.83;;;1.02;;
62580;SDS011;48640;48.770;9.148;2022-09-21T11:31:47;1.67;;;0.90;;
62580;SDS011;48640;48.770;9.148;2022-09-21T11:37:48;2.80;;;1.23;;
62580;SDS011;48640;48.770;9.148;2022-09-21T11:40:29;5.25;;;1.55;;
62580;SDS011;48640;48.770;9.148;2022-09-21T11:43:07;4.18;;;1.48;;
62580;SDS011;48640;48.770;9.148;2022-09-21T11:45:51;3.30;;;1.17;;
62580;SDS011;48640;48.770;9.148;2022-09-21T11:48:29;3.45;;;1.00;;
62580;SDS011;48640;48.770;9.148;2022-09-21T11:51:08;2.90;;;1.20;;
62580;SDS011;48640;48.770;9.148;2022-09-21T11:53:48;4.32;;;1.17;;
62580;SDS011;48640;48.770;9.148;2022-09-21T11:56:38;2.90;;;0.98;;
62580;SDS011;48640;48.770;9.148;2022-09-21T11:59:16;1.90;;;1.00;;
62580;SDS011;48640;48.770;9.148;2022-09-21T12:02:01;2.47;;;1.08;;
62580;SDS011;48640;48.770;9.148;2022-09-21T12:04:56;2.28;;;0.98;;
62580;SDS011;48640;48.770;9.148;2022-09-21T12:07:32;2.47;;;0.80;;
62580;SDS011;48640;48.770;9.148;2022-09-21T12:13:04;2.38;;;0.80;;
62580;SDS011;48640;48.770;9.148;2022-09-21T12:15:36;1.58;;;0.80;;
62580;SDS011;48640;48.770;9.148;2022-09-21T12:18:10;4.15;;;1.38;;
62580;SDS011;48640;48.770;9.148;2022-09-21T12:20:47;2.53;;;0.93;;
62580;SDS011;48640;48.770;9.148;2022-09-21T12:23:19;1.40;;;0.60;;
62580;SDS011;48640;48.770;9.148;2022-09-21T12:25:53;2.78;;;0.90;;
62580;SDS011;48640;48.770;9.148;2022-09-21T12:28:23;2.45;;;0.90;;
62580;SDS011;48640;48.770;9.148;2022-09-21T12:30:55;1.58;;;0.57;;
62580;SDS011;48640;48.770;9.148;2022-09-21T12:33:31;1.90;;;0.75;;
62580;SDS011;48640;48.770;9.148;2022-09-21T12:36:06;2.78;;;0.60;;
62580;SDS011;48640;48.770;9.148;2022-09-21T12:38:39;2.55;;;0.73;;
62580;SDS011;48640;48.770;9.148;2022-09-21T12:41:17;1.42;;;0.70;;
62580;SDS011;48640;48.770;9.148;2022-09-21T12:43:48;1.50;;;0.80;;
62580;SDS011;48640;48.770;9.148;2022-09-21T12:46:19;1.40;;;0.60;;
62580;SDS011;48640;48.770;9.148;2022-09-21T12:48:50;2.33;;;0.60;;
62580;SDS011;48640;48.770;9.148;2022-09-21T12:51:18;2.63;;;0.60;;
62580;SDS011;48640;48.770;9.148;2022-09-21T12:53:50;2.45;;;0.63;;
62580;SDS011;48640;48.770;9.148;2022-09-21T12:56:22;2.83;;;0.50;;
62580;SDS011;48640;48.770;9.148;2022-09-21T12:59:00;1.13;;;0.65;;
62580;SDS011;48640;48.770;9.148;2022-09-21T13:01:36;1.17;;;0.70;;
62580;SDS011;48640;48.770;9.148;2022-09-21T13:04:28;4.93;;;2.15;;
62580;SDS011;48640;48.770;9.148;2022-09-21T13:09:58;3.03;;;0.95;;
62580;SDS011;48640;48.770;9.148;2022-09-21T13:12:36;2.40;;;0.55;;
62580;SDS011;48640;48.770;9.148;2022-09-21T13:15:11;1.35;;;0.50;;
62580;SDS011;48640;48.770;9.148;2022-09-21T13:17:55;3.45;;;1.42;;
62580;SDS011;48640;48.770;9.148;2022-09-21T13:20:25;1.90;;;0.60;;
62580;SDS011;48640;48.770;9.148;2022-09-21T13:22:58;3.08;;;0.80;;
62580;SDS011;48640;48.770;9.148;2022-09-21T13:25:27;1.27;;;0.70;;
62580;SDS011;48640;48.770;9.148;2022-09-21T13:28:04;1.48;;;0.70;;
62580;SDS011;48640;48.770;9.148;2022-09-21T13:30:44;2.08;;;0.80;;
62580;SDS011;48640;48.770;9.148;2022-09-21T13:33:29;1.65;;;0.70;;
62580;SDS011;48640;48.770;9.148;2022-09-21T13:36:01;4.32;;;2.55;;
62580;SDS011;48640;48.770;9.148;2022-09-21T13:38:30;2.72;;;0.70;;
62580;SDS011;48640;48.770;9.148;2022-09-21T13:41:02;4.43;;;1.20;;
62580;SDS011;48640;48.770;9.148;2022-09-21T13:49:19;3.92;;;1.00;;
62580;SDS011;48640;48.770;9.148;2022-09-21T13:51:52;2.65;;;0.77;;
62580;SDS011;48640;48.770;9.148;2022-09-21T13:54:23;1.75;;;1.00;;
62580;SDS011;48640;48.770;9.148;2022-09-21T13:56:58;2.33;;;0.77;;
62580;SDS011;48640;48.770;9.148;2022-09-21T13:59:28;2.00;;;0.85;;
62580;SDS011;48640;48.770;9.148;2022-09-21T14:04:27;1.73;;;0.90;;
62580;SDS011;48640;48.770;9.148;2022-09-21T14:07:00;1.50;;;0.65;;
62580;SDS011;48640;48.770;9.148;2022-09-21T14:09:31;2.33;;;0.88;;
62580;SDS011;48640;48.770;9.148;2022-09-21T14:12:05;2.60;;;0.80;;
62580;SDS011;48640;48.770;9.148;2022-09-21T14:14:37;1.88;;;0.70;;
62580;SDS011;48640;48.770;9.148;2022-09-21T14:17:18;2.50;;;0.70;;
62580;SDS011;48640;48.770;9.148;2022-09-21T14:20:01;3.20;;;0.98;;
62580;SDS011;48640;48.770;9.148;2022-09-21T14:22:36;2.40;;;0.90;;
62580;SDS011;48640;48.770;9.148;2022-09-21T14:27:51;1.58;;;0.80;;
62580;SDS011;48640;48.770;9.148;2022-09-21T14:30:24;1.52;;;0.70;;
62580;SDS011;48640;48.770;9.148;2022-09-21T14:33:00;1.95;;;0.93;;
62580;SDS011;48640;48.770;9.148;2022-09-21T14:35:36;3.03;;;1.00;;
62580;SDS011;48640;48.770;9.148;2022-09-21T14:38:12;2.75;;;1.05;;
62580;SDS011;48640;48.770;9.148;2022-09-21T14:40:44;2.05;;;1.00;;
62580;SDS011;48640;48.770;9.148;2022-09-21T14:43:15;3.33;;;0.93;;
62580;SDS011;48640;48.770;9.148;2022-09-21T14:45:49;1.65;;;0.80;;
62580;SDS011;48640;48.770;9.148;2022-09-21T14:48:29;1.83;;;1.00;;
62580;SDS011;48640;48.770;9.148;2022-09-21T14:51:18;2.40;;;1.10;;
62580;SDS011;48640;48.770;9.148;2022-09-21T14:53:56;1.90;;;0.90;;
62580;SDS011;48640;48.770;9.148;2022-09-21T14:56:38;1.10;;;0.63;;
62580;SDS011;48640;48.770;9.148;2022-09-21T14:59:30;2.40;;;0.80;;
62580;SDS011;48640;48.770;9.148;2022-09-21T15:02:15;2.72;;;1.02;;
62580;SDS011;48640;48.770;9.148;2022-09-21T15:10:24;3.83;;;1.08;;
62580;SDS011;48640;48.770;9.148;2022-09-21T15:19:01;2.88;;;0.90;;
62580;SDS011;48640;48.770;9.148;2022-09-21T15:24:16;5.47;;;1.15;;
62580;SDS011;48640;48.770;9.148;2022-09-21T15:26:48;1.80;;;1.10;;
62580;SDS011;48640;48.770;9.148;2022-09-21T15:29:19;3.60;;;0.73;;
62580;SDS011;48640;48.770;9.148;2022-09-21T15:31:49;5.90;;;1.10;;
62580;SDS011;48640;48.770;9.148;2022-09-21T15:34:16;3.70;;;1.35;;
62580;SDS011;48640;48.770;9.148;2022-09-21T15:36:43;2.20;;;0.90;;
62580;SDS011;48640;48.770;9.148;2022-09-21T15:39:26;1.70;;;0.60;;
62580;SDS011;48640;48.770;9.148;2022-09-21T15:42:01;2.90;;;0.65;;
62580;SDS011;48640;48.770;9.148;2022-09-21T15:44:43;3.92;;;1.00;;
62580;SDS011;48640;48.770;9.148;2022-09-21T15:47:13;2.05;;;1.15;;
62580;SDS011;48640;48.770;9.148;2022-09-21T15:49:43;1.73;;;0.80;;
62580;SDS011;48640;48.770;9.148;2022-09-21T15:52:10;1.75;;;0.90;;
62580;SDS011;48640;48.770;9.148;2022-09-21T15:54:47;2.30;;;0.90;;
62580;SDS011;48640;48.770;9.148;2022-09-21T15:57:29;1.17;;;0.52;;
62580;SDS011;48640;48.770;9.148;2022-09-21T16:00:00;1.80;;;0.70;;